Bw Columbia — 9V2880 — position and weather

sailwx.info

Track history (hours):
 
Tides and Currents Weather Stations Pressure Air Temp Water Temp Dewpoint Dewpoint Depression Visibility Wind Speed Wind Dir Waves Ship Positions

Bw Columbia

Last reported at 2017-Nov-07 22:07 UTC. Time now 2017-Nov-18 10:25 UTC.
Position N 36°12' E 014°51'.
Warning: this ship's position is 10 days out of date.

Length 228 m; draft 12.5 m.

Type: Tanker. MMSI: 564977000.

Date/timePositionNaut miles runAvg speedWind from/ knotsBaromVisibWave heightAir tempDewpointWater temp
2017-Nov-07 22:07N 36°12' E 014°51'113.1
2017-Nov-07 22:00N 36°13' E 014°49'713.3
2017-Nov-07 21:30N 36°15' E 014°42'713.1
2017-Nov-07 21:00N 36°17' E 014°34'713.2
2017-Nov-07 20:30N 36°19' E 014°26'713.4
2017-Nov-07 20:00N 36°22' E 014°19'713.5
2017-Nov-07 19:30N 36°25' E 014°11'713.7
2017-Nov-07 19:00N 36°28' E 014°03'713.7
2017-Nov-07 18:30N 36°31' E 013°56'713.4
2017-Nov-07 17:57N 36°34' E 013°48'  
2017-Nov-04 16:42N 35°60' W 005°16'314.5
2017-Nov-04 16:30N 35°59' W 005°19'25310.8
2017-Nov-03 17:04N 37°58' W 009°59'111.9
2017-Nov-03 16:59N 37°59' W 009°60'1211.6
2017-Nov-03 15:55N 38°11' W 010°03'511.9
2017-Nov-03 15:30N 38°16' W 010°04'612.0
2017-Nov-03 15:00N 38°22' W 010°06'612.0
2017-Nov-03 14:30N 38°27' W 010°08'611.9
2017-Nov-03 14:00N 38°33' W 010°09'612.0
2017-Nov-03 13:30N 38°39' W 010°11'612.1
2017-Nov-03 13:00N 38°45' W 010°12'611.8
2017-Nov-03 12:30N 38°51' W 010°12'611.4
2017-Nov-03 12:00N 38°57' W 010°12'611.1
2017-Nov-03 11:30N 39°02' W 010°12'611.7
2017-Nov-03 11:00N 39°08' W 010°12'611.9
2017-Nov-03 10:30N 39°14' W 010°12'611.9
2017-Nov-03 10:00N 39°20' W 010°12'612.3
2017-Nov-03 09:30N 39°26' W 010°12'  
2017-Nov-01 01:59N 49°29' W 004°23'611.5
2017-Nov-01 01:30N 49°32' W 004°16'611.7
2017-Nov-01 01:00N 49°35' W 004°08'612.0
2017-Nov-01 00:30N 49°38' W 004°01'612.4
2017-Nov-01 00:00N 49°42' W 003°53'612.9
2017-Oct-31 23:30N 49°45' W 003°44'713.2
2017-Oct-31 23:00N 49°49' W 003°35'713.6
2017-Oct-31 22:30N 49°52' W 003°27'713.5
2017-Oct-31 22:00N 49°55' W 003°17'713.8
2017-Oct-31 21:30N 49°56' W 003°06'713.7
2017-Oct-31 21:00N 49°58' W 002°56'713.4
2017-Oct-31 20:30N 49°60' W 002°46'712.9
2017-Oct-31 19:59N 50°02' W 002°36'612.4
2017-Oct-31 19:30N 50°04' W 002°27'611.7
2017-Oct-31 19:00N 50°06' W 002°19'910.9
2017-Oct-31 18:08N 50°08' W 002°05'110.3
2017-Oct-31 18:00N 50°09' W 002°03'510.1
2017-Oct-31 17:30N 50°10' W 001°55'5 9.9
2017-Oct-31 17:00N 50°11' W 001°48'6 9.8
2017-Oct-31 16:22N 50°13' W 001°38'410.0
2017-Oct-31 15:59N 50°14' W 001°32'510.4
2017-Oct-31 15:30N 50°15' W 001°25'510.9
2017-Oct-31 15:00N 50°17' W 001°17'611.5
2017-Oct-31 14:30N 50°18' W 001°08'612.2
2017-Oct-31 14:00N 50°20' W 000°59'612.9
2017-Oct-31 13:30N 50°22' W 000°49'713.2
2017-Oct-31 12:57N 50°24' W 000°38'613.4
2017-Oct-31 12:30N 50°25' W 000°28'713.4
2017-Oct-31 12:00N 50°27' W 000°19'713.4
2017-Oct-31 11:30N 50°29' W 000°08'713.4
2017-Oct-31 11:00N 50°30' E 000°02'713.3
2017-Oct-31 10:30N 50°32' E 000°12'713.2
2017-Oct-31 10:00N 50°34' E 000°22'612.8
2017-Oct-31 09:30N 50°35' E 000°32'612.4
2017-Oct-31 09:00N 50°39' E 000°40'612.4
2017-Oct-31 08:30N 50°42' E 000°48'612.1
2017-Oct-31 08:00N 50°46' E 000°56'612.0
2017-Oct-31 07:30N 50°49' E 001°03'611.9
2017-Oct-31 07:00N 50°53' E 001°10'612.1
2017-Oct-31 06:30N 50°58' E 001°17'612.4
2017-Oct-31 06:00N 51°02' E 001°24'713.8
2017-Oct-31 05:30N 51°06' E 001°33'714.2
2017-Oct-31 05:01N 51°11' E 001°41'713.9
2017-Oct-31 04:31N 51°16' E 001°48'714.3
2017-Oct-31 04:00N 51°23' E 001°52'713.7
2017-Oct-31 03:30N 51°29' E 001°58'713.3
2017-Oct-31 03:00N 51°34' E 002°06'713.2
2017-Oct-31 02:30N 51°38' E 002°13'612.9
2017-Oct-31 02:00N 51°43' E 002°20'1712.2
2017-Oct-31 00:39N 51°56' E 002°36'411.9
2017-Oct-31 00:18N 51°59' E 002°41'311.6
2017-Oct-31 00:00N 52°02' E 002°45'611.5
2017-Oct-30 23:28N 52°06' E 002°52'3111.4
2017-Oct-30 20:47N 52°26' E 003°30'512.2
2017-Oct-30 20:21N 52°29' E 003°38'512.1
2017-Oct-30 19:55N 52°30' E 003°46'512.1
2017-Oct-30 19:29N 52°31' E 003°54'612.0
2017-Oct-30 19:00N 52°31' E 004°04'1111.2
2017-Oct-30 18:00N 52°29' E 004°22'3 6.7
2017-Oct-30 17:30N 52°29' E 004°27'5 9.3
2017-Oct-30 17:00N 52°28' E 004°35'1 2.2
2017-Oct-30 16:30N 52°28' E 004°37'0 0.0
2017-Oct-30 16:00N 52°28' E 004°37'1 1.7
2017-Oct-30 15:30N 52°28' E 004°38'3 5.8
2017-Oct-30 15:01N 52°26' E 004°42'3 6.5
2017-Oct-30 14:31N 52°26' E 004°47'2 2.0
2017-Oct-30 13:29N 52°25' E 004°50'0 0.0
2017-Oct-30 12:59N 52°25' E 004°50'0 0.0
2017-Oct-30 12:29N 52°25' E 004°50'0 0.0
2017-Oct-30 11:56N 52°25' E 004°50'0 0.0
2017-Oct-30 11:29N 52°25' E 004°50'0 0.0
2017-Oct-30 10:59N 52°25' E 004°50'0 0.0
2017-Oct-30 10:29N 52°25' E 004°50'0 0.0
2017-Oct-30 09:59N 52°25' E 004°50'0 0.0
2017-Oct-30 09:29N 52°25' E 004°50'0 0.0
2017-Oct-30 08:59N 52°25' E 004°50'0 0.0
2017-Oct-30 08:29N 52°25' E 004°50'0 0.0
2017-Oct-30 07:59N 52°25' E 004°50'0 0.0
2017-Oct-30 07:29N 52°25' E 004°50'0 0.0
2017-Oct-30 06:56N 52°25' E 004°50'0 0.0
2017-Oct-30 06:26N 52°25' E 004°50'0 0.0
2017-Oct-30 05:56N 52°25' E 004°50'0 0.0
2017-Oct-30 05:29N 52°25' E 004°50'0 0.0
2017-Oct-30 04:59N 52°25' E 004°50'0 0.0
2017-Oct-30 04:29N 52°25' E 004°50'0 0.0
2017-Oct-30 03:59N 52°25' E 004°50'0 0.0
2017-Oct-30 03:29N 52°25' E 004°50'0 0.0
2017-Oct-30 02:59N 52°25' E 004°50'0 0.0
2017-Oct-30 02:29N 52°25' E 004°50'0 0.0
2017-Oct-30 01:59N 52°25' E 004°50'0 0.0
2017-Oct-30 01:29N 52°25' E 004°50'0 0.0
2017-Oct-30 00:59N 52°25' E 004°50'0 0.0
2017-Oct-30 00:29N 52°25' E 004°50'0 0.0
2017-Oct-29 23:59N 52°25' E 004°50'0 0.0
2017-Oct-29 23:29N 52°25' E 004°50'0 0.0
2017-Oct-29 22:59N 52°25' E 004°50'0 0.0
2017-Oct-29 22:26N 52°25' E 004°50'0 0.0
2017-Oct-29 21:59N 52°25' E 004°50'0 0.0
2017-Oct-29 21:29N 52°25' E 004°50'0 0.0
2017-Oct-29 20:59N 52°25' E 004°50'0 0.0
2017-Oct-29 20:26N 52°25' E 004°50'0 0.0
2017-Oct-29 19:56N 52°25' E 004°50'0 0.0
2017-Oct-29 19:26N 52°25' E 004°50'0 0.0
2017-Oct-29 18:59N 52°25' E 004°50'0 0.0
2017-Oct-29 18:29N 52°25' E 004°50'0 0.0
2017-Oct-29 17:59N 52°25' E 004°50'0 0.0
2017-Oct-29 17:29N 52°25' E 004°50'0 0.0
2017-Oct-29 16:59N 52°25' E 004°50'0 0.0
2017-Oct-29 16:29N 52°25' E 004°50'0 0.0
2017-Oct-29 15:59N 52°25' E 004°50'0 0.0
2017-Oct-29 15:29N 52°25' E 004°50'0 0.0
2017-Oct-29 14:59N 52°25' E 004°50'0 0.0
2017-Oct-29 14:29N 52°25' E 004°50'0 0.0
2017-Oct-29 13:59N 52°25' E 004°50'0 0.0
2017-Oct-29 13:29N 52°25' E 004°50'0 0.0
2017-Oct-29 12:59N 52°25' E 004°50'0 0.0
2017-Oct-29 12:29N 52°25' E 004°50'0 0.0
2017-Oct-29 11:59N 52°25' E 004°50'0 0.0
2017-Oct-29 11:23N 52°25' E 004°50'0 0.0
2017-Oct-29 10:59N 52°25' E 004°50'0 0.0
2017-Oct-29 10:29N 52°25' E 004°50'0 0.0
2017-Oct-29 09:59N 52°25' E 004°50'0 0.0
2017-Oct-29 09:29N 52°25' E 004°50'0 0.0
2017-Oct-29 08:59N 52°25' E 004°50'0 0.0
2017-Oct-29 08:29N 52°25' E 004°50'0 0.0
2017-Oct-29 07:59N 52°25' E 004°50'0 0.0
2017-Oct-29 07:29N 52°25' E 004°50'0 0.0
2017-Oct-29 06:59N 52°25' E 004°50'0 0.0
2017-Oct-29 06:29N 52°25' E 004°50'0 0.0
2017-Oct-29 05:59N 52°25' E 004°50'0 0.0
2017-Oct-29 05:29N 52°25' E 004°50'0 0.0
2017-Oct-29 04:59N 52°25' E 004°50'0 0.0
2017-Oct-29 04:29N 52°25' E 004°50'0 0.0
2017-Oct-29 03:59N 52°25' E 004°50'  
Track history (hours):
 
Tides and Currents Weather Stations Pressure Air Temp Water Temp Dewpoint Dewpoint Depression Visibility Wind Speed Wind Dir Waves Ship Positions

Bw Columbia

Last reported at 2017-Nov-07 22:07 UTC. Time now 2017-Nov-18 10:25 UTC.
Position N 36°12' E 014°51'.
Warning: this ship's position is 10 days out of date.

Length 228 m; draft 12.5 m.

Type: Tanker. MMSI: 564977000.

Date/timePositionNaut miles runAvg speedWind from/ knotsBaromVisibWave heightAir tempDewpointWater temp
2017-Nov-07 22:07N 36°12' E 014°51'113.1
2017-Nov-07 22:00N 36°13' E 014°49'713.3
2017-Nov-07 21:30N 36°15' E 014°42'713.1
2017-Nov-07 21:00N 36°17' E 014°34'713.2
2017-Nov-07 20:30N 36°19' E 014°26'713.4
2017-Nov-07 20:00N 36°22' E 014°19'713.5
2017-Nov-07 19:30N 36°25' E 014°11'713.7
2017-Nov-07 19:00N 36°28' E 014°03'713.7
2017-Nov-07 18:30N 36°31' E 013°56'713.4
2017-Nov-07 17:57N 36°34' E 013°48'  
2017-Nov-04 16:42N 35°60' W 005°16'314.5
2017-Nov-04 16:30N 35°59' W 005°19'25310.8
2017-Nov-03 17:04N 37°58' W 009°59'111.9
2017-Nov-03 16:59N 37°59' W 009°60'1211.6
2017-Nov-03 15:55N 38°11' W 010°03'511.9
2017-Nov-03 15:30N 38°16' W 010°04'612.0
2017-Nov-03 15:00N 38°22' W 010°06'612.0
2017-Nov-03 14:30N 38°27' W 010°08'611.9
2017-Nov-03 14:00N 38°33' W 010°09'612.0
2017-Nov-03 13:30N 38°39' W 010°11'612.1
2017-Nov-03 13:00N 38°45' W 010°12'611.8
2017-Nov-03 12:30N 38°51' W 010°12'611.4
2017-Nov-03 12:00N 38°57' W 010°12'611.1
2017-Nov-03 11:30N 39°02' W 010°12'611.7
2017-Nov-03 11:00N 39°08' W 010°12'611.9
2017-Nov-03 10:30N 39°14' W 010°12'611.9
2017-Nov-03 10:00N 39°20' W 010°12'612.3
2017-Nov-03 09:30N 39°26' W 010°12'  
2017-Nov-01 01:59N 49°29' W 004°23'611.5
2017-Nov-01 01:30N 49°32' W 004°16'611.7
2017-Nov-01 01:00N 49°35' W 004°08'612.0
2017-Nov-01 00:30N 49°38' W 004°01'612.4
2017-Nov-01 00:00N 49°42' W 003°53'612.9
2017-Oct-31 23:30N 49°45' W 003°44'713.2
2017-Oct-31 23:00N 49°49' W 003°35'713.6
2017-Oct-31 22:30N 49°52' W 003°27'713.5
2017-Oct-31 22:00N 49°55' W 003°17'713.8
2017-Oct-31 21:30N 49°56' W 003°06'713.7
2017-Oct-31 21:00N 49°58' W 002°56'713.4
2017-Oct-31 20:30N 49°60' W 002°46'712.9
2017-Oct-31 19:59N 50°02' W 002°36'612.4
2017-Oct-31 19:30N 50°04' W 002°27'611.7
2017-Oct-31 19:00N 50°06' W 002°19'910.9
2017-Oct-31 18:08N 50°08' W 002°05'110.3
2017-Oct-31 18:00N 50°09' W 002°03'510.1
2017-Oct-31 17:30N 50°10' W 001°55'5 9.9
2017-Oct-31 17:00N 50°11' W 001°48'6 9.8
2017-Oct-31 16:22N 50°13' W 001°38'410.0
2017-Oct-31 15:59N 50°14' W 001°32'510.4
2017-Oct-31 15:30N 50°15' W 001°25'510.9
2017-Oct-31 15:00N 50°17' W 001°17'611.5
2017-Oct-31 14:30N 50°18' W 001°08'612.2
2017-Oct-31 14:00N 50°20' W 000°59'612.9
2017-Oct-31 13:30N 50°22' W 000°49'713.2
2017-Oct-31 12:57N 50°24' W 000°38'613.4
2017-Oct-31 12:30N 50°25' W 000°28'713.4
2017-Oct-31 12:00N 50°27' W 000°19'713.4
2017-Oct-31 11:30N 50°29' W 000°08'713.4
2017-Oct-31 11:00N 50°30' E 000°02'713.3
2017-Oct-31 10:30N 50°32' E 000°12'713.2
2017-Oct-31 10:00N 50°34' E 000°22'612.8
2017-Oct-31 09:30N 50°35' E 000°32'612.4
2017-Oct-31 09:00N 50°39' E 000°40'612.4
2017-Oct-31 08:30N 50°42' E 000°48'612.1
2017-Oct-31 08:00N 50°46' E 000°56'612.0
2017-Oct-31 07:30N 50°49' E 001°03'611.9
2017-Oct-31 07:00N 50°53' E 001°10'612.1
2017-Oct-31 06:30N 50°58' E 001°17'612.4
2017-Oct-31 06:00N 51°02' E 001°24'713.8
2017-Oct-31 05:30N 51°06' E 001°33'714.2
2017-Oct-31 05:01N 51°11' E 001°41'713.9
2017-Oct-31 04:31N 51°16' E 001°48'714.3
2017-Oct-31 04:00N 51°23' E 001°52'713.7
2017-Oct-31 03:30N 51°29' E 001°58'713.3
2017-Oct-31 03:00N 51°34' E 002°06'713.2
2017-Oct-31 02:30N 51°38' E 002°13'612.9
2017-Oct-31 02:00N 51°43' E 002°20'1712.2
2017-Oct-31 00:39N 51°56' E 002°36'411.9
2017-Oct-31 00:18N 51°59' E 002°41'311.6
2017-Oct-31 00:00N 52°02' E 002°45'611.5
2017-Oct-30 23:28N 52°06' E 002°52'3111.4
2017-Oct-30 20:47N 52°26' E 003°30'512.2
2017-Oct-30 20:21N 52°29' E 003°38'512.1
2017-Oct-30 19:55N 52°30' E 003°46'512.1
2017-Oct-30 19:29N 52°31' E 003°54'612.0
2017-Oct-30 19:00N 52°31' E 004°04'1111.2
2017-Oct-30 18:00N 52°29' E 004°22'3 6.7
2017-Oct-30 17:30N 52°29' E 004°27'5 9.3
2017-Oct-30 17:00N 52°28' E 004°35'1 2.2
2017-Oct-30 16:30N 52°28' E 004°37'0 0.0
2017-Oct-30 16:00N 52°28' E 004°37'1 1.7
2017-Oct-30 15:30N 52°28' E 004°38'3 5.8
2017-Oct-30 15:01N 52°26' E 004°42'3 6.5
2017-Oct-30 14:31N 52°26' E 004°47'2 2.0
2017-Oct-30 13:29N 52°25' E 004°50'0 0.0
2017-Oct-30 12:59N 52°25' E 004°50'0 0.0
2017-Oct-30 12:29N 52°25' E 004°50'0 0.0
2017-Oct-30 11:56N 52°25' E 004°50'0 0.0
2017-Oct-30 11:29N 52°25' E 004°50'0 0.0
2017-Oct-30 10:59N 52°25' E 004°50'0 0.0
2017-Oct-30 10:29N 52°25' E 004°50'0 0.0
2017-Oct-30 09:59N 52°25' E 004°50'0 0.0
2017-Oct-30 09:29N 52°25' E 004°50'0 0.0
2017-Oct-30 08:59N 52°25' E 004°50'0 0.0
2017-Oct-30 08:29N 52°25' E 004°50'0 0.0
2017-Oct-30 07:59N 52°25' E 004°50'0 0.0
2017-Oct-30 07:29N 52°25' E 004°50'0 0.0
2017-Oct-30 06:56N 52°25' E 004°50'0 0.0
2017-Oct-30 06:26N 52°25' E 004°50'0 0.0
2017-Oct-30 05:56N 52°25' E 004°50'0 0.0
2017-Oct-30 05:29N 52°25' E 004°50'0 0.0
2017-Oct-30 04:59N 52°25' E 004°50'0 0.0
2017-Oct-30 04:29N 52°25' E 004°50'0 0.0
2017-Oct-30 03:59N 52°25' E 004°50'0 0.0
2017-Oct-30 03:29N 52°25' E 004°50'0 0.0
2017-Oct-30 02:59N 52°25' E 004°50'0 0.0
2017-Oct-30 02:29N 52°25' E 004°50'0 0.0
2017-Oct-30 01:59N 52°25' E 004°50'0 0.0
2017-Oct-30 01:29N 52°25' E 004°50'0 0.0
2017-Oct-30 00:59N 52°25' E 004°50'0 0.0
2017-Oct-30 00:29N 52°25' E 004°50'0 0.0
2017-Oct-29 23:59N 52°25' E 004°50'0 0.0
2017-Oct-29 23:29N 52°25' E 004°50'0 0.0
2017-Oct-29 22:59N 52°25' E 004°50'0 0.0
2017-Oct-29 22:26N 52°25' E 004°50'0 0.0
2017-Oct-29 21:59N 52°25' E 004°50'0 0.0
2017-Oct-29 21:29N 52°25' E 004°50'0 0.0
2017-Oct-29 20:59N 52°25' E 004°50'0 0.0
2017-Oct-29 20:26N 52°25' E 004°50'0 0.0
2017-Oct-29 19:56N 52°25' E 004°50'0 0.0
2017-Oct-29 19:26N 52°25' E 004°50'0 0.0
2017-Oct-29 18:59N 52°25' E 004°50'0 0.0
2017-Oct-29 18:29N 52°25' E 004°50'0 0.0
2017-Oct-29 17:59N 52°25' E 004°50'0 0.0
2017-Oct-29 17:29N 52°25' E 004°50'0 0.0
2017-Oct-29 16:59N 52°25' E 004°50'0 0.0
2017-Oct-29 16:29N 52°25' E 004°50'0 0.0
2017-Oct-29 15:59N 52°25' E 004°50'0 0.0
2017-Oct-29 15:29N 52°25' E 004°50'0 0.0
2017-Oct-29 14:59N 52°25' E 004°50'0 0.0
2017-Oct-29 14:29N 52°25' E 004°50'0 0.0
2017-Oct-29 13:59N 52°25' E 004°50'0 0.0
2017-Oct-29 13:29N 52°25' E 004°50'0 0.0
2017-Oct-29 12:59N 52°25' E 004°50'0 0.0
2017-Oct-29 12:29N 52°25' E 004°50'0 0.0
2017-Oct-29 11:59N 52°25' E 004°50'0 0.0
2017-Oct-29 11:23N 52°25' E 004°50'0 0.0
2017-Oct-29 10:59N 52°25' E 004°50'0 0.0
2017-Oct-29 10:29N 52°25' E 004°50'0 0.0
2017-Oct-29 09:59N 52°25' E 004°50'0 0.0
2017-Oct-29 09:29N 52°25' E 004°50'0 0.0
2017-Oct-29 08:59N 52°25' E 004°50'0 0.0
2017-Oct-29 08:29N 52°25' E 004°50'0 0.0
2017-Oct-29 07:59N 52°25' E 004°50'0 0.0
2017-Oct-29 07:29N 52°25' E 004°50'0 0.0
2017-Oct-29 06:59N 52°25' E 004°50'0 0.0
2017-Oct-29 06:29N 52°25' E 004°50'0 0.0
2017-Oct-29 05:59N 52°25' E 004°50'0 0.0
2017-Oct-29 05:29N 52°25' E 004°50'0 0.0
2017-Oct-29 04:59N 52°25' E 004°50'0 0.0
2017-Oct-29 04:29N 52°25' E 004°50'0 0.0
2017-Oct-29 03:59N 52°25' E 004°50'  

Dump ship's entire track history